sensor_id;sensor_type;location;lat;lon;timestamp;P1;durP1;ratioP1;P2;durP2;ratioP2
9128;SDS011;4599;50.906;6.786;2024-01-30T00:01:01;12.20;;;6.30;;
9128;SDS011;4599;50.906;6.786;2024-01-30T00:05:03;9.40;;;6.43;;
9128;SDS011;4599;50.906;6.786;2024-01-30T00:09:06;8.50;;;6.10;;
9128;SDS011;4599;50.906;6.786;2024-01-30T00:13:09;9.80;;;6.30;;
9128;SDS011;4599;50.906;6.786;2024-01-30T00:17:11;11.13;;;6.83;;
9128;SDS011;4599;50.906;6.786;2024-01-30T00:21:13;9.47;;;6.40;;
9128;SDS011;4599;50.906;6.786;2024-01-30T00:25:15;9.03;;;6.63;;
9128;SDS011;4599;50.906;6.786;2024-01-30T00:29:19;10.57;;;6.50;;
9128;SDS011;4599;50.906;6.786;2024-01-30T00:33:21;9.30;;;6.60;;
9128;SDS011;4599;50.906;6.786;2024-01-30T00:37:23;9.83;;;6.63;;
9128;SDS011;4599;50.906;6.786;2024-01-30T00:41:24;12.00;;;6.47;;
9128;SDS011;4599;50.906;6.786;2024-01-30T00:45:27;8.30;;;5.93;;
9128;SDS011;4599;50.906;6.786;2024-01-30T00:49:29;9.60;;;6.27;;
9128;SDS011;4599;50.906;6.786;2024-01-30T00:53:31;11.50;;;6.60;;
9128;SDS011;4599;50.906;6.786;2024-01-30T00:57:32;10.37;;;6.37;;
9128;SDS011;4599;50.906;6.786;2024-01-30T01:01:36;10.10;;;6.20;;
9128;SDS011;4599;50.906;6.786;2024-01-30T01:05:38;10.00;;;6.50;;
9128;SDS011;4599;50.906;6.786;2024-01-30T01:09:40;15.00;;;6.97;;
9128;SDS011;4599;50.906;6.786;2024-01-30T01:13:42;8.73;;;6.40;;
9128;SDS011;4599;50.906;6.786;2024-01-30T01:17:45;10.87;;;6.10;;
9128;SDS011;4599;50.906;6.786;2024-01-30T01:21:47;9.23;;;6.60;;
9128;SDS011;4599;50.906;6.786;2024-01-30T01:25:48;11.70;;;6.70;;
9128;SDS011;4599;50.906;6.786;2024-01-30T01:29:50;11.63;;;6.80;;
9128;SDS011;4599;50.906;6.786;2024-01-30T01:33:53;9.43;;;6.50;;
9128;SDS011;4599;50.906;6.786;2024-01-30T01:37:56;9.27;;;6.53;;
9128;SDS011;4599;50.906;6.786;2024-01-30T01:41:57;8.27;;;6.07;;
9128;SDS011;4599;50.906;6.786;2024-01-30T01:45:59;8.63;;;6.23;;
9128;SDS011;4599;50.906;6.786;2024-01-30T01:50:02;9.30;;;6.40;;
9128;SDS011;4599;50.906;6.786;2024-01-30T01:54:04;9.63;;;6.67;;
9128;SDS011;4599;50.906;6.786;2024-01-30T01:58:07;9.77;;;6.80;;
9128;SDS011;4599;50.906;6.786;2024-01-30T02:02:09;10.83;;;6.83;;
9128;SDS011;4599;50.906;6.786;2024-01-30T02:06:15;10.53;;;7.10;;
9128;SDS011;4599;50.906;6.786;2024-01-30T02:10:17;9.93;;;6.67;;
9128;SDS011;4599;50.906;6.786;2024-01-30T02:14:19;11.07;;;6.47;;
9128;SDS011;4599;50.906;6.786;2024-01-30T02:18:21;10.90;;;7.07;;
9128;SDS011;4599;50.906;6.786;2024-01-30T02:22:25;10.93;;;6.83;;
9128;SDS011;4599;50.906;6.786;2024-01-30T02:26:27;9.40;;;6.60;;
9128;SDS011;4599;50.906;6.786;2024-01-30T02:30:28;9.30;;;6.20;;
9128;SDS011;4599;50.906;6.786;2024-01-30T02:34:30;8.77;;;6.17;;
9128;SDS011;4599;50.906;6.786;2024-01-30T02:38:33;8.30;;;6.23;;
9128;SDS011;4599;50.906;6.786;2024-01-30T02:42:36;10.37;;;6.57;;
9128;SDS011;4599;50.906;6.786;2024-01-30T02:46:37;9.80;;;6.60;;
9128;SDS011;4599;50.906;6.786;2024-01-30T02:50:40;10.47;;;7.00;;
9128;SDS011;4599;50.906;6.786;2024-01-30T02:54:43;11.60;;;6.70;;
9128;SDS011;4599;50.906;6.786;2024-01-30T02:58:46;9.77;;;6.87;;
9128;SDS011;4599;50.906;6.786;2024-01-30T03:02:48;11.80;;;7.40;;
9128;SDS011;4599;50.906;6.786;2024-01-30T03:06:50;10.07;;;6.77;;
9128;SDS011;4599;50.906;6.786;2024-01-30T03:10:53;10.43;;;6.80;;
9128;SDS011;4599;50.906;6.786;2024-01-30T03:14:54;10.27;;;6.93;;
9128;SDS011;4599;50.906;6.786;2024-01-30T03:18:56;11.60;;;7.20;;
9128;SDS011;4599;50.906;6.786;2024-01-30T03:22:59;8.40;;;6.23;;
9128;SDS011;4599;50.906;6.786;2024-01-30T03:27:03;10.47;;;6.80;;
9128;SDS011;4599;50.906;6.786;2024-01-30T03:31:06;8.90;;;6.10;;
9128;SDS011;4599;50.906;6.786;2024-01-30T03:35:08;9.83;;;6.40;;
9128;SDS011;4599;50.906;6.786;2024-01-30T03:39:10;8.93;;;5.70;;
9128;SDS011;4599;50.906;6.786;2024-01-30T03:43:13;12.80;;;6.60;;
9128;SDS011;4599;50.906;6.786;2024-01-30T03:47:15;8.37;;;5.93;;
9128;SDS011;4599;50.906;6.786;2024-01-30T03:51:16;8.60;;;5.73;;
9128;SDS011;4599;50.906;6.786;2024-01-30T03:55:18;8.30;;;5.37;;
9128;SDS011;4599;50.906;6.786;2024-01-30T03:59:21;10.80;;;6.03;;
9128;SDS011;4599;50.906;6.786;2024-01-30T04:03:23;11.20;;;6.17;;
9128;SDS011;4599;50.906;6.786;2024-01-30T04:07:24;12.43;;;5.97;;
9128;SDS011;4599;50.906;6.786;2024-01-30T04:11:26;11.03;;;6.20;;
9128;SDS011;4599;50.906;6.786;2024-01-30T04:15:29;10.43;;;6.30;;
9128;SDS011;4599;50.906;6.786;2024-01-30T04:19:31;10.83;;;6.07;;
9128;SDS011;4599;50.906;6.786;2024-01-30T04:23:33;8.40;;;6.13;;
9128;SDS011;4599;50.906;6.786;2024-01-30T04:27:34;10.30;;;5.80;;
9128;SDS011;4599;50.906;6.786;2024-01-30T04:31:37;10.33;;;5.80;;
9128;SDS011;4599;50.906;6.786;2024-01-30T04:35:39;9.30;;;5.80;;
9128;SDS011;4599;50.906;6.786;2024-01-30T04:39:41;9.00;;;6.13;;
9128;SDS011;4599;50.906;6.786;2024-01-30T04:43:43;8.50;;;5.60;;
9128;SDS011;4599;50.906;6.786;2024-01-30T04:47:46;10.97;;;5.60;;
9128;SDS011;4599;50.906;6.786;2024-01-30T04:51:48;10.33;;;5.77;;
9128;SDS011;4599;50.906;6.786;2024-01-30T04:55:50;9.37;;;5.67;;
9128;SDS011;4599;50.906;6.786;2024-01-30T04:59:52;8.53;;;5.83;;
9128;SDS011;4599;50.906;6.786;2024-01-30T05:03:54;11.67;;;5.57;;
9128;SDS011;4599;50.906;6.786;2024-01-30T05:07:56;7.73;;;5.73;;
9128;SDS011;4599;50.906;6.786;2024-01-30T05:11:58;10.63;;;6.50;;
9128;SDS011;4599;50.906;6.786;2024-01-30T05:16:01;8.93;;;6.00;;
9128;SDS011;4599;50.906;6.786;2024-01-30T05:20:05;9.60;;;5.53;;
9128;SDS011;4599;50.906;6.786;2024-01-30T05:24:08;9.70;;;6.00;;
9128;SDS011;4599;50.906;6.786;2024-01-30T05:28:09;10.67;;;6.00;;
9128;SDS011;4599;50.906;6.786;2024-01-30T05:32:11;10.10;;;6.20;;
9128;SDS011;4599;50.906;6.786;2024-01-30T05:36:14;10.00;;;6.50;;
9128;SDS011;4599;50.906;6.786;2024-01-30T05:40:15;11.13;;;6.07;;
9128;SDS011;4599;50.906;6.786;2024-01-30T05:44:17;10.50;;;6.37;;
9128;SDS011;4599;50.906;6.786;2024-01-30T05:48:19;10.93;;;6.50;;
9128;SDS011;4599;50.906;6.786;2024-01-30T05:52:22;10.47;;;6.10;;
9128;SDS011;4599;50.906;6.786;2024-01-30T05:56:24;7.53;;;5.67;;
9128;SDS011;4599;50.906;6.786;2024-01-30T06:00:26;9.17;;;6.50;;
9128;SDS011;4599;50.906;6.786;2024-01-30T06:04:28;9.27;;;5.93;;
9128;SDS011;4599;50.906;6.786;2024-01-30T06:08:31;11.77;;;6.43;;
9128;SDS011;4599;50.906;6.786;2024-01-30T06:12:32;10.17;;;6.20;;
9128;SDS011;4599;50.906;6.786;2024-01-30T06:16:34;9.17;;;6.20;;
9128;SDS011;4599;50.906;6.786;2024-01-30T06:20:36;6.93;;;5.93;;
9128;SDS011;4599;50.906;6.786;2024-01-30T06:24:39;12.67;;;6.20;;
9128;SDS011;4599;50.906;6.786;2024-01-30T06:28:41;9.13;;;6.50;;
9128;SDS011;4599;50.906;6.786;2024-01-30T06:32:52;9.17;;;6.73;;
9128;SDS011;4599;50.906;6.786;2024-01-30T06:36:54;11.23;;;6.97;;
9128;SDS011;4599;50.906;6.786;2024-01-30T06:40:56;8.67;;;5.77;;
9128;SDS011;4599;50.906;6.786;2024-01-30T06:44:57;11.70;;;6.57;;
9128;SDS011;4599;50.906;6.786;2024-01-30T06:49:00;9.03;;;6.33;;
9128;SDS011;4599;50.906;6.786;2024-01-30T06:53:02;8.47;;;5.70;;
9128;SDS011;4599;50.906;6.786;2024-01-30T06:57:04;10.10;;;6.03;;
9128;SDS011;4599;50.906;6.786;2024-01-30T07:01:06;9.53;;;6.23;;
9128;SDS011;4599;50.906;6.786;2024-01-30T07:05:09;9.57;;;6.10;;
9128;SDS011;4599;50.906;6.786;2024-01-30T07:09:11;7.30;;;5.67;;
9128;SDS011;4599;50.906;6.786;2024-01-30T07:13:13;10.37;;;6.70;;
9128;SDS011;4599;50.906;6.786;2024-01-30T07:17:15;12.87;;;6.77;;
9128;SDS011;4599;50.906;6.786;2024-01-30T07:21:18;9.37;;;6.57;;
9128;SDS011;4599;50.906;6.786;2024-01-30T07:25:19;10.70;;;7.07;;
9128;SDS011;4599;50.906;6.786;2024-01-30T07:29:21;9.17;;;6.23;;
9128;SDS011;4599;50.906;6.786;2024-01-30T07:33:23;11.33;;;5.90;;
9128;SDS011;4599;50.906;6.786;2024-01-30T07:37:26;9.57;;;5.80;;
9128;SDS011;4599;50.906;6.786;2024-01-30T07:41:27;13.63;;;6.63;;
9128;SDS011;4599;50.906;6.786;2024-01-30T07:45:29;9.60;;;6.10;;
9128;SDS011;4599;50.906;6.786;2024-01-30T07:49:32;10.10;;;5.77;;
9128;SDS011;4599;50.906;6.786;2024-01-30T07:53:35;8.03;;;5.67;;
9128;SDS011;4599;50.906;6.786;2024-01-30T07:57:38;12.50;;;6.43;;
9128;SDS011;4599;50.906;6.786;2024-01-30T08:01:40;10.63;;;5.67;;
9128;SDS011;4599;50.906;6.786;2024-01-30T08:05:42;8.97;;;6.03;;
9128;SDS011;4599;50.906;6.786;2024-01-30T08:09:45;7.97;;;5.80;;
9128;SDS011;4599;50.906;6.786;2024-01-30T08:13:47;7.63;;;5.77;;
9128;SDS011;4599;50.906;6.786;2024-01-30T08:17:49;8.53;;;6.33;;
9128;SDS011;4599;50.906;6.786;2024-01-30T08:21:51;9.53;;;6.00;;
9128;SDS011;4599;50.906;6.786;2024-01-30T08:25:54;9.50;;;6.03;;
9128;SDS011;4599;50.906;6.786;2024-01-30T08:29:55;8.60;;;6.37;;
9128;SDS011;4599;50.906;6.786;2024-01-30T08:33:57;9.70;;;6.50;;
9128;SDS011;4599;50.906;6.786;2024-01-30T08:37:59;9.07;;;6.50;;
9128;SDS011;4599;50.906;6.786;2024-01-30T08:42:02;9.73;;;6.83;;
9128;SDS011;4599;50.906;6.786;2024-01-30T08:46:04;9.57;;;6.20;;
9128;SDS011;4599;50.906;6.786;2024-01-30T08:50:06;10.20;;;7.20;;
9128;SDS011;4599;50.906;6.786;2024-01-30T08:54:08;11.20;;;7.57;;
9128;SDS011;4599;50.906;6.786;2024-01-30T08:58:11;10.37;;;6.80;;
9128;SDS011;4599;50.906;6.786;2024-01-30T09:02:13;15.10;;;7.03;;
9128;SDS011;4599;50.906;6.786;2024-01-30T09:06:15;12.83;;;6.87;;
9128;SDS011;4599;50.906;6.786;2024-01-30T09:10:17;10.63;;;6.70;;
9128;SDS011;4599;50.906;6.786;2024-01-30T09:14:23;11.77;;;7.47;;
9128;SDS011;4599;50.906;6.786;2024-01-30T09:18:24;13.10;;;7.60;;
9128;SDS011;4599;50.906;6.786;2024-01-30T09:22:26;10.20;;;6.70;;
9128;SDS011;4599;50.906;6.786;2024-01-30T09:26:28;10.00;;;7.23;;
9128;SDS011;4599;50.906;6.786;2024-01-30T09:30:31;11.63;;;6.73;;
9128;SDS011;4599;50.906;6.786;2024-01-30T09:34:32;9.20;;;7.00;;
9128;SDS011;4599;50.906;6.786;2024-01-30T09:38:34;9.40;;;7.40;;
9128;SDS011;4599;50.906;6.786;2024-01-30T09:42:36;8.57;;;6.80;;
9128;SDS011;4599;50.906;6.786;2024-01-30T09:46:39;11.53;;;7.50;;
9128;SDS011;4599;50.906;6.786;2024-01-30T09:50:41;14.87;;;7.17;;
9128;SDS011;4599;50.906;6.786;2024-01-30T09:54:43;13.53;;;7.20;;
9128;SDS011;4599;50.906;6.786;2024-01-30T09:58:46;8.87;;;7.20;;
9128;SDS011;4599;50.906;6.786;2024-01-30T10:02:49;10.63;;;7.20;;
9128;SDS011;4599;50.906;6.786;2024-01-30T10:06:50;9.27;;;6.73;;
9128;SDS011;4599;50.906;6.786;2024-01-30T10:10:52;11.90;;;7.57;;
9128;SDS011;4599;50.906;6.786;2024-01-30T10:14:55;11.77;;;7.77;;
9128;SDS011;4599;50.906;6.786;2024-01-30T10:18:59;13.53;;;8.63;;
9128;SDS011;4599;50.906;6.786;2024-01-30T10:23:01;12.87;;;7.80;;
9128;SDS011;4599;50.906;6.786;2024-01-30T10:27:03;12.47;;;8.13;;
9128;SDS011;4599;50.906;6.786;2024-01-30T10:31:07;10.27;;;7.70;;
9128;SDS011;4599;50.906;6.786;2024-01-30T10:35:10;10.67;;;7.60;;
9128;SDS011;4599;50.906;6.786;2024-01-30T10:39:13;11.53;;;7.77;;
9128;SDS011;4599;50.906;6.786;2024-01-30T10:43:18;17.37;;;8.13;;
9128;SDS011;4599;50.906;6.786;2024-01-30T10:47:25;14.10;;;7.73;;
9128;SDS011;4599;50.906;6.786;2024-01-30T10:51:29;11.93;;;7.73;;
9128;SDS011;4599;50.906;6.786;2024-01-30T10:55:32;12.17;;;7.73;;
9128;SDS011;4599;50.906;6.786;2024-01-30T10:59:35;10.23;;;7.53;;
9128;SDS011;4599;50.906;6.786;2024-01-30T11:03:38;14.93;;;7.87;;
9128;SDS011;4599;50.906;6.786;2024-01-30T11:07:41;18.17;;;8.07;;
9128;SDS011;4599;50.906;6.786;2024-01-30T11:11:49;10.87;;;8.10;;
9128;SDS011;4599;50.906;6.786;2024-01-30T11:15:51;12.17;;;7.47;;
9128;SDS011;4599;50.906;6.786;2024-01-30T11:19:53;11.43;;;7.87;;
9128;SDS011;4599;50.906;6.786;2024-01-30T11:23:56;11.27;;;8.80;;
9128;SDS011;4599;50.906;6.786;2024-01-30T11:27:58;16.30;;;8.10;;
9128;SDS011;4599;50.906;6.786;2024-01-30T11:32:00;10.43;;;7.93;;
9128;SDS011;4599;50.906;6.786;2024-01-30T11:36:02;10.67;;;7.60;;
9128;SDS011;4599;50.906;6.786;2024-01-30T11:40:07;11.33;;;7.90;;
9128;SDS011;4599;50.906;6.786;2024-01-30T11:44:10;12.50;;;8.30;;
9128;SDS011;4599;50.906;6.786;2024-01-30T11:48:11;9.40;;;7.97;;
9128;SDS011;4599;50.906;6.786;2024-01-30T11:52:14;16.20;;;8.90;;
9128;SDS011;4599;50.906;6.786;2024-01-30T11:56:17;15.73;;;9.37;;
9128;SDS011;4599;50.906;6.786;2024-01-30T12:00:18;13.40;;;8.50;;
9128;SDS011;4599;50.906;6.786;2024-01-30T12:04:20;11.47;;;8.00;;
9128;SDS011;4599;50.906;6.786;2024-01-30T12:08:22;10.77;;;7.33;;
9128;SDS011;4599;50.906;6.786;2024-01-30T12:12:25;14.97;;;8.07;;
9128;SDS011;4599;50.906;6.786;2024-01-30T12:16:28;12.93;;;7.80;;
9128;SDS011;4599;50.906;6.786;2024-01-30T12:20:29;11.47;;;7.73;;
9128;SDS011;4599;50.906;6.786;2024-01-30T12:24:31;13.00;;;6.63;;
9128;SDS011;4599;50.906;6.786;2024-01-30T12:28:35;13.80;;;4.70;;
9128;SDS011;4599;50.906;6.786;2024-01-30T12:32:36;11.63;;;4.93;;
9128;SDS011;4599;50.906;6.786;2024-01-30T12:36:38;10.67;;;4.87;;
9128;SDS011;4599;50.906;6.786;2024-01-30T12:40:40;10.90;;;4.30;;
9128;SDS011;4599;50.906;6.786;2024-01-30T12:44:44;11.70;;;4.33;;
9128;SDS011;4599;50.906;6.786;2024-01-30T12:48:46;14.07;;;4.80;;
9128;SDS011;4599;50.906;6.786;2024-01-30T12:52:47;8.20;;;3.77;;
9128;SDS011;4599;50.906;6.786;2024-01-30T12:56:50;8.87;;;4.47;;
9128;SDS011;4599;50.906;6.786;2024-01-30T13:00:54;9.53;;;3.73;;
9128;SDS011;4599;50.906;6.786;2024-01-30T13:04:56;8.97;;;3.77;;
9128;SDS011;4599;50.906;6.786;2024-01-30T13:08:58;12.97;;;4.30;;
9128;SDS011;4599;50.906;6.786;2024-01-30T13:13:01;10.13;;;4.00;;
9128;SDS011;4599;50.906;6.786;2024-01-30T13:17:04;15.87;;;4.90;;
9128;SDS011;4599;50.906;6.786;2024-01-30T13:21:05;14.77;;;4.00;;
9128;SDS011;4599;50.906;6.786;2024-01-30T13:25:07;8.90;;;4.00;;
9128;SDS011;4599;50.906;6.786;2024-01-30T13:29:10;6.97;;;3.70;;
9128;SDS011;4599;50.906;6.786;2024-01-30T13:33:13;6.33;;;3.60;;
9128;SDS011;4599;50.906;6.786;2024-01-30T13:37:14;6.30;;;2.97;;
9128;SDS011;4599;50.906;6.786;2024-01-30T13:41:16;8.47;;;3.57;;
9128;SDS011;4599;50.906;6.786;2024-01-30T13:45:18;6.07;;;3.57;;
9128;SDS011;4599;50.906;6.786;2024-01-30T13:49:22;6.17;;;3.70;;
9128;SDS011;4599;50.906;6.786;2024-01-30T13:53:25;10.37;;;4.00;;
9128;SDS011;4599;50.906;6.786;2024-01-30T13:57:26;6.17;;;4.00;;
9128;SDS011;4599;50.906;6.786;2024-01-30T14:01:28;6.83;;;4.10;;
9128;SDS011;4599;50.906;6.786;2024-01-30T14:05:31;7.47;;;3.83;;
9128;SDS011;4599;50.906;6.786;2024-01-30T14:09:33;7.67;;;3.87;;
9128;SDS011;4599;50.906;6.786;2024-01-30T14:13:34;8.13;;;4.00;;
9128;SDS011;4599;50.906;6.786;2024-01-30T14:17:36;7.47;;;4.13;;
9128;SDS011;4599;50.906;6.786;2024-01-30T14:21:39;6.17;;;4.10;;
9128;SDS011;4599;50.906;6.786;2024-01-30T14:25:42;6.53;;;4.63;;
9128;SDS011;4599;50.906;6.786;2024-01-30T14:29:44;8.67;;;4.30;;
9128;SDS011;4599;50.906;6.786;2024-01-30T14:33:46;7.47;;;4.43;;
9128;SDS011;4599;50.906;6.786;2024-01-30T14:37:49;8.57;;;4.77;;
9128;SDS011;4599;50.906;6.786;2024-01-30T14:41:51;7.07;;;4.60;;
9128;SDS011;4599;50.906;6.786;2024-01-30T14:45:55;11.67;;;5.37;;
9128;SDS011;4599;50.906;6.786;2024-01-30T14:50:02;10.67;;;4.50;;
9128;SDS011;4599;50.906;6.786;2024-01-30T14:54:11;8.93;;;4.63;;
9128;SDS011;4599;50.906;6.786;2024-01-30T14:58:12;6.90;;;4.50;;
9128;SDS011;4599;50.906;6.786;2024-01-30T15:02:15;9.13;;;4.77;;
9128;SDS011;4599;50.906;6.786;2024-01-30T15:06:26;10.13;;;5.03;;
9128;SDS011;4599;50.906;6.786;2024-01-30T15:15:15;7.70;;;4.53;;
9128;SDS011;4599;50.906;6.786;2024-01-30T15:19:16;6.30;;;4.30;;
9128;SDS011;4599;50.906;6.786;2024-01-30T15:23:18;6.33;;;4.30;;
9128;SDS011;4599;50.906;6.786;2024-01-30T15:27:21;6.20;;;4.57;;
9128;SDS011;4599;50.906;6.786;2024-01-30T15:31:27;9.23;;;4.63;;
9128;SDS011;4599;50.906;6.786;2024-01-30T15:35:28;8.33;;;4.50;;
9128;SDS011;4599;50.906;6.786;2024-01-30T15:39:31;10.40;;;5.10;;
9128;SDS011;4599;50.906;6.786;2024-01-30T15:43:34;10.57;;;5.47;;
9128;SDS011;4599;50.906;6.786;2024-01-30T15:47:36;12.53;;;6.03;;
9128;SDS011;4599;50.906;6.786;2024-01-30T15:51:38;12.50;;;6.47;;
9128;SDS011;4599;50.906;6.786;2024-01-30T15:55:40;14.13;;;5.73;;
9128;SDS011;4599;50.906;6.786;2024-01-30T15:59:44;12.23;;;6.10;;
9128;SDS011;4599;50.906;6.786;2024-01-30T16:03:46;13.93;;;6.10;;
9128;SDS011;4599;50.906;6.786;2024-01-30T16:07:47;15.77;;;6.30;;
9128;SDS011;4599;50.906;6.786;2024-01-30T16:11:49;10.63;;;5.20;;
9128;SDS011;4599;50.906;6.786;2024-01-30T16:15:52;12.20;;;5.00;;
9128;SDS011;4599;50.906;6.786;2024-01-30T16:19:54;10.30;;;5.10;;
9128;SDS011;4599;50.906;6.786;2024-01-30T16:23:56;8.60;;;4.43;;
9128;SDS011;4599;50.906;6.786;2024-01-30T16:27:58;12.03;;;4.80;;
9128;SDS011;4599;50.906;6.786;2024-01-30T16:32:02;7.90;;;4.03;;
9128;SDS011;4599;50.906;6.786;2024-01-30T16:36:04;6.20;;;3.50;;
9128;SDS011;4599;50.906;6.786;2024-01-30T16:40:06;5.27;;;3.50;;
9128;SDS011;4599;50.906;6.786;2024-01-30T16:44:09;4.73;;;2.63;;
9128;SDS011;4599;50.906;6.786;2024-01-30T16:48:12;5.73;;;2.57;;
9128;SDS011;4599;50.906;6.786;2024-01-30T16:52:14;6.17;;;2.10;;
9128;SDS011;4599;50.906;6.786;2024-01-30T16:56:16;5.37;;;1.90;;
9128;SDS011;4599;50.906;6.786;2024-01-30T17:00:17;6.03;;;1.80;;
9128;SDS011;4599;50.906;6.786;2024-01-30T17:04:21;4.30;;;1.50;;
9128;SDS011;4599;50.906;6.786;2024-01-30T17:08:23;3.90;;;1.30;;
9128;SDS011;4599;50.906;6.786;2024-01-30T17:12:24;1.77;;;1.20;;
9128;SDS011;4599;50.906;6.786;2024-01-30T17:16:28;4.03;;;1.20;;
9128;SDS011;4599;50.906;6.786;2024-01-30T17:20:34;3.27;;;1.37;;
9128;SDS011;4599;50.906;6.786;2024-01-30T17:24:36;2.23;;;1.20;;
9128;SDS011;4599;50.906;6.786;2024-01-30T17:28:50;2.77;;;1.17;;
9128;SDS011;4599;50.906;6.786;2024-01-30T17:32:53;5.93;;;1.20;;
9128;SDS011;4599;50.906;6.786;2024-01-30T17:37:06;2.50;;;1.30;;
9128;SDS011;4599;50.906;6.786;2024-01-30T17:41:16;4.10;;;1.10;;
9128;SDS011;4599;50.906;6.786;2024-01-30T17:45:18;2.67;;;1.10;;
9128;SDS011;4599;50.906;6.786;2024-01-30T17:49:22;3.43;;;1.10;;
9128;SDS011;4599;50.906;6.786;2024-01-30T17:53:25;5.67;;;1.30;;
9128;SDS011;4599;50.906;6.786;2024-01-30T17:57:27;6.93;;;1.27;;
9128;SDS011;4599;50.906;6.786;2024-01-30T18:01:29;6.90;;;1.60;;
9128;SDS011;4599;50.906;6.786;2024-01-30T18:05:31;2.80;;;1.30;;
9128;SDS011;4599;50.906;6.786;2024-01-30T18:09:36;2.53;;;1.07;;
9128;SDS011;4599;50.906;6.786;2024-01-30T18:13:38;4.90;;;1.20;;
9128;SDS011;4599;50.906;6.786;2024-01-30T18:17:40;3.80;;;1.30;;
9128;SDS011;4599;50.906;6.786;2024-01-30T18:21:42;3.07;;;1.30;;
9128;SDS011;4599;50.906;6.786;2024-01-30T18:25:45;5.27;;;1.40;;
9128;SDS011;4599;50.906;6.786;2024-01-30T18:29:47;2.87;;;1.20;;
9128;SDS011;4599;50.906;6.786;2024-01-30T18:33:51;3.50;;;1.23;;
9128;SDS011;4599;50.906;6.786;2024-01-30T18:37:54;5.43;;;1.60;;
9128;SDS011;4599;50.906;6.786;2024-01-30T18:42:01;6.83;;;1.30;;
9128;SDS011;4599;50.906;6.786;2024-01-30T18:46:08;7.10;;;1.27;;
9128;SDS011;4599;50.906;6.786;2024-01-30T18:50:13;5.13;;;1.50;;
9128;SDS011;4599;50.906;6.786;2024-01-30T18:54:17;3.47;;;1.17;;
9128;SDS011;4599;50.906;6.786;2024-01-30T18:58:28;4.40;;;1.17;;
9128;SDS011;4599;50.906;6.786;2024-01-30T19:02:30;3.67;;;1.37;;
9128;SDS011;4599;50.906;6.786;2024-01-30T19:06:32;3.27;;;1.30;;
9128;SDS011;4599;50.906;6.786;2024-01-30T19:10:34;7.03;;;1.83;;
9128;SDS011;4599;50.906;6.786;2024-01-30T19:14:45;4.43;;;1.60;;
9128;SDS011;4599;50.906;6.786;2024-01-30T19:18:47;3.10;;;1.40;;
9128;SDS011;4599;50.906;6.786;2024-01-30T19:22:48;4.00;;;1.40;;
9128;SDS011;4599;50.906;6.786;2024-01-30T19:26:50;4.80;;;1.53;;
9128;SDS011;4599;50.906;6.786;2024-01-30T19:30:53;3.40;;;1.50;;
9128;SDS011;4599;50.906;6.786;2024-01-30T19:34:55;7.17;;;1.67;;
9128;SDS011;4599;50.906;6.786;2024-01-30T19:38:57;5.07;;;1.60;;
9128;SDS011;4599;50.906;6.786;2024-01-30T19:43:01;4.97;;;1.70;;
9128;SDS011;4599;50.906;6.786;2024-01-30T19:47:04;8.63;;;1.43;;
9128;SDS011;4599;50.906;6.786;2024-01-30T19:51:06;5.53;;;1.97;;
9128;SDS011;4599;50.906;6.786;2024-01-30T19:55:08;5.27;;;1.57;;
9128;SDS011;4599;50.906;6.786;2024-01-30T19:59:10;4.60;;;1.80;;
9128;SDS011;4599;50.906;6.786;2024-01-30T20:03:13;8.73;;;2.00;;
9128;SDS011;4599;50.906;6.786;2024-01-30T20:07:15;4.90;;;1.60;;
9128;SDS011;4599;50.906;6.786;2024-01-30T20:11:19;3.43;;;1.60;;
9128;SDS011;4599;50.906;6.786;2024-01-30T20:15:20;6.00;;;1.80;;
9128;SDS011;4599;50.906;6.786;2024-01-30T20:19:26;3.30;;;1.73;;
9128;SDS011;4599;50.906;6.786;2024-01-30T20:23:28;4.07;;;1.60;;
9128;SDS011;4599;50.906;6.786;2024-01-30T20:27:30;4.30;;;1.53;;
9128;SDS011;4599;50.906;6.786;2024-01-30T20:31:32;2.50;;;1.30;;
9128;SDS011;4599;50.906;6.786;2024-01-30T20:35:35;3.73;;;1.60;;
9128;SDS011;4599;50.906;6.786;2024-01-30T20:39:37;4.60;;;1.40;;
9128;SDS011;4599;50.906;6.786;2024-01-30T20:43:38;3.90;;;1.40;;
9128;SDS011;4599;50.906;6.786;2024-01-30T20:47:40;2.00;;;1.30;;
9128;SDS011;4599;50.906;6.786;2024-01-30T20:51:43;2.23;;;1.33;;
9128;SDS011;4599;50.906;6.786;2024-01-30T20:55:45;7.00;;;1.77;;
9128;SDS011;4599;50.906;6.786;2024-01-30T20:59:47;3.13;;;1.30;;
9128;SDS011;4599;50.906;6.786;2024-01-30T21:03:49;6.10;;;1.33;;
9128;SDS011;4599;50.906;6.786;2024-01-30T21:07:52;5.13;;;1.83;;
9128;SDS011;4599;50.906;6.786;2024-01-30T21:11:55;5.63;;;1.47;;
9128;SDS011;4599;50.906;6.786;2024-01-30T21:15:56;3.33;;;1.30;;
9128;SDS011;4599;50.906;6.786;2024-01-30T21:19:58;5.10;;;1.60;;
9128;SDS011;4599;50.906;6.786;2024-01-30T21:24:01;5.03;;;1.40;;
9128;SDS011;4599;50.906;6.786;2024-01-30T21:28:03;3.37;;;1.73;;
9128;SDS011;4599;50.906;6.786;2024-01-30T21:32:05;3.33;;;1.50;;
9128;SDS011;4599;50.906;6.786;2024-01-30T21:36:07;3.03;;;1.60;;
9128;SDS011;4599;50.906;6.786;2024-01-30T21:40:10;3.87;;;2.13;;
9128;SDS011;4599;50.906;6.786;2024-01-30T21:44:12;3.47;;;1.70;;
9128;SDS011;4599;50.906;6.786;2024-01-30T21:48:13;2.63;;;1.70;;
9128;SDS011;4599;50.906;6.786;2024-01-30T21:52:16;4.90;;;2.30;;
9128;SDS011;4599;50.906;6.786;2024-01-30T21:56:20;6.20;;;2.10;;
9128;SDS011;4599;50.906;6.786;2024-01-30T22:00:21;2.83;;;2.07;;
9128;SDS011;4599;50.906;6.786;2024-01-30T22:04:23;4.20;;;2.20;;
9128;SDS011;4599;50.906;6.786;2024-01-30T22:08:25;3.27;;;2.10;;
9128;SDS011;4599;50.906;6.786;2024-01-30T22:12:28;3.93;;;2.23;;
9128;SDS011;4599;50.906;6.786;2024-01-30T22:16:29;4.57;;;2.20;;
9128;SDS011;4599;50.906;6.786;2024-01-30T22:20:31;4.07;;;2.27;;
9128;SDS011;4599;50.906;6.786;2024-01-30T22:24:33;5.43;;;2.40;;
9128;SDS011;4599;50.906;6.786;2024-01-30T22:28:36;4.73;;;2.27;;
9128;SDS011;4599;50.906;6.786;2024-01-30T22:32:38;5.07;;;2.23;;
9128;SDS011;4599;50.906;6.786;2024-01-30T22:36:40;4.57;;;2.30;;
9128;SDS011;4599;50.906;6.786;2024-01-30T22:40:41;7.20;;;2.23;;
9128;SDS011;4599;50.906;6.786;2024-01-30T22:44:45;4.50;;;2.20;;
9128;SDS011;4599;50.906;6.786;2024-01-30T22:48:47;5.03;;;2.40;;
9128;SDS011;4599;50.906;6.786;2024-01-30T22:52:50;5.80;;;3.37;;
9128;SDS011;4599;50.906;6.786;2024-01-30T22:56:52;9.43;;;2.97;;
9128;SDS011;4599;50.906;6.786;2024-01-30T23:00:55;4.50;;;3.00;;
9128;SDS011;4599;50.906;6.786;2024-01-30T23:04:57;4.13;;;3.60;;
9128;SDS011;4599;50.906;6.786;2024-01-30T23:08:59;7.47;;;3.77;;
9128;SDS011;4599;50.906;6.786;2024-01-30T23:13:01;6.50;;;4.10;;
9128;SDS011;4599;50.906;6.786;2024-01-30T23:17:04;4.97;;;3.77;;
9128;SDS011;4599;50.906;6.786;2024-01-30T23:21:05;6.67;;;4.37;;
9128;SDS011;4599;50.906;6.786;2024-01-30T23:25:07;6.47;;;4.30;;
9128;SDS011;4599;50.906;6.786;2024-01-30T23:29:09;8.63;;;4.57;;
9128;SDS011;4599;50.906;6.786;2024-01-30T23:33:12;7.03;;;4.20;;
9128;SDS011;4599;50.906;6.786;2024-01-30T23:37:14;8.47;;;4.37;;
9128;SDS011;4599;50.906;6.786;2024-01-30T23:41:16;10.50;;;4.60;;
9128;SDS011;4599;50.906;6.786;2024-01-30T23:45:18;7.13;;;4.93;;
9128;SDS011;4599;50.906;6.786;2024-01-30T23:49:21;7.33;;;5.00;;
9128;SDS011;4599;50.906;6.786;2024-01-30T23:53:23;6.30;;;4.47;;
9128;SDS011;4599;50.906;6.786;2024-01-30T23:57:24;7.77;;;4.87;;
